createdAt,value
2019-02-15T00:01:06.429Z,75.13
2019-02-15T00:03:36.631Z,74.10
2019-02-15T00:06:06.778Z,76.43
2019-02-15T00:08:37.112Z,77.27
2019-02-15T00:11:06.810Z,75.53
2019-02-15T00:13:38.490Z,68.63
2019-02-15T00:16:08.592Z,71.53
2019-02-15T00:18:46.491Z,76.43
2019-02-15T00:21:18.349Z,68.90
2019-02-15T00:23:48.669Z,67.23
2019-02-15T00:26:18.659Z,68.23
2019-02-15T00:28:50.390Z,66.63
2019-02-15T00:31:22.072Z,70.57
2019-02-15T00:33:51.990Z,66.57
2019-02-15T00:36:21.611Z,69.67
2019-02-15T00:38:51.829Z,71.50
2019-02-15T00:41:21.710Z,66.30
2019-02-15T00:43:52.173Z,69.23
2019-02-15T00:46:32.930Z,75.28
2019-02-15T00:49:03.952Z,64.13
2019-02-15T00:51:50.811Z,62.43
2019-02-15T00:54:22.489Z,58.83
2019-02-15T00:57:06.172Z,62.23
2019-02-15T00:59:49.818Z,56.57
2019-02-15T01:02:21.570Z,57.50
2019-02-15T01:05:05.409Z,51.70
2019-02-15T01:07:39.549Z,55.40
2019-02-15T01:10:23.970Z,53.80
2019-02-15T01:12:55.530Z,52.13
2019-02-15T01:15:25.969Z,50.20
2019-02-15T01:17:56.078Z,50.80
2019-02-15T01:20:26.389Z,60.40
2019-02-15T01:22:56.510Z,54.70
2019-02-15T01:25:28.270Z,53.70
2019-02-15T01:28:05.971Z,55.43
2019-02-15T01:30:49.809Z,53.27
2019-02-15T01:33:33.429Z,52.90
2019-02-15T01:36:11.690Z,52.47
2019-02-15T01:38:45.449Z,58.60
2019-02-15T01:41:23.051Z,53.93
2019-02-15T01:43:58.069Z,56.00
2019-02-15T01:46:39.050Z,53.67
2019-02-15T01:49:08.752Z,57.90
2019-02-15T01:51:38.773Z,60.60
2019-02-15T01:54:08.990Z,58.37
2019-02-15T01:56:39.009Z,58.07
2019-02-15T01:59:08.749Z,60.13
2019-02-15T02:01:38.214Z,60.97
2019-02-15T02:04:08.349Z,55.23
2019-02-15T02:06:38.563Z,53.00
2019-02-15T02:09:08.889Z,50.87
2019-02-15T02:11:39.490Z,56.30
2019-02-15T02:14:10.950Z,58.07
2019-02-15T02:16:42.029Z,54.70
2019-02-15T02:19:12.110Z,59.07
2019-02-15T02:21:42.329Z,63.83
2019-02-15T02:24:12.570Z,68.07
2019-02-15T02:26:42.817Z,60.57
2019-02-15T02:29:13.109Z,67.93
2019-02-15T02:31:43.210Z,70.17
2019-02-15T02:34:13.211Z,62.77
2019-02-15T02:36:51.851Z,78.67
2019-02-15T02:39:22.320Z,73.33
2019-02-15T02:41:52.515Z,73.77
2019-02-15T02:44:22.390Z,80.93
2019-02-15T02:46:52.417Z,82.93
2019-02-15T02:49:22.450Z,79.73
2019-02-15T02:51:52.593Z,83.17
2019-02-15T02:54:22.791Z,81.87
2019-02-15T02:56:52.891Z,79.97
2019-02-15T02:59:22.609Z,84.67
2019-02-15T03:01:52.578Z,84.20
2019-02-15T03:04:22.650Z,85.93
2019-02-15T03:06:52.972Z,91.57
2019-02-15T03:09:23.007Z,85.27
2019-02-15T03:11:52.789Z,89.93
2019-02-15T03:14:22.789Z,89.23
2019-02-15T03:16:52.511Z,92.27
2019-02-15T03:19:22.479Z,96.23
2019-02-15T03:21:52.817Z,94.43
2019-02-15T03:24:23.371Z,98.00
2019-02-15T03:26:53.539Z,88.73
2019-02-15T03:29:23.710Z,94.60
2019-02-15T03:31:53.931Z,93.70
2019-02-15T03:34:23.966Z,96.63
2019-02-15T03:37:05.030Z,91.07
2019-02-15T03:39:39.471Z,102.47
2019-02-15T03:42:11.217Z,101.53
2019-02-15T03:44:40.830Z,101.10
2019-02-15T03:47:10.732Z,103.80
2019-02-15T03:49:40.950Z,104.67
2019-02-15T03:52:11.087Z,104.90
2019-02-15T03:54:41.370Z,94.67
2019-02-15T03:57:11.509Z,105.33
2019-02-15T03:59:41.729Z,101.37
2019-02-15T04:02:11.250Z,97.57
2019-02-15T04:04:41.232Z,99.07
2019-02-15T04:07:11.258Z,99.40
2019-02-15T04:09:41.492Z,103.97
2019-02-15T04:12:11.689Z,102.70
2019-02-15T04:14:42.331Z,103.53
2019-02-15T04:17:12.781Z,101.17
2019-02-15T04:19:42.773Z,100.17
2019-02-15T04:22:12.748Z,101.53
2019-02-15T04:24:42.728Z,96.07
2019-02-15T04:27:12.753Z,99.87
2019-02-15T04:29:44.588Z,96.97
2019-02-15T04:32:16.335Z,102.00
2019-02-15T04:34:46.657Z,100.57
2019-02-15T04:37:16.926Z,98.87
2019-02-15T04:39:50.046Z,99.60
2019-02-15T04:42:19.676Z,94.30
2019-02-15T04:44:49.728Z,99.33
2019-02-15T04:47:19.367Z,102.13
2019-02-15T04:49:49.468Z,91.60
2019-02-15T04:52:19.868Z,99.03
2019-02-15T04:54:50.245Z,110.73
2019-02-15T04:57:20.700Z,99.27
2019-02-15T04:59:50.883Z,99.87
2019-02-15T05:02:21.249Z,105.30
2019-02-15T05:04:51.197Z,104.87
2019-02-15T05:07:21.510Z,101.70
2019-02-15T05:09:51.834Z,99.17
2019-02-15T05:12:21.951Z,105.87
2019-02-15T05:14:53.440Z,103.60
2019-02-15T05:17:23.824Z,110.23
2019-02-15T05:19:53.417Z,100.93
2019-02-15T05:22:23.484Z,111.20
2019-02-15T05:24:53.538Z,114.10
2019-02-15T05:27:23.583Z,104.17
2019-02-15T05:29:53.702Z,101.83
2019-02-15T05:32:23.932Z,107.50
2019-02-15T05:34:54.189Z,105.13
2019-02-15T05:37:24.187Z,107.40
2019-02-15T05:39:54.254Z,115.67
2019-02-15T05:42:24.603Z,110.47
2019-02-15T05:45:03.341Z,114.43
2019-02-15T05:47:26.389Z,115.13
2019-02-15T05:49:56.501Z,120.30
2019-02-15T05:52:26.665Z,127.73
2019-02-15T05:54:57.204Z,109.73
2019-02-15T05:57:27.323Z,124.07
2019-02-15T05:59:57.504Z,124.63
2019-02-15T06:02:28.254Z,121.20
2019-02-15T06:04:58.877Z,123.73
2019-02-15T06:07:30.843Z,115.77
2019-02-15T06:10:01.111Z,118.37
2019-02-15T06:12:31.193Z,118.93
2019-02-15T06:15:01.744Z,114.13
2019-02-15T06:17:33.366Z,114.50
2019-02-15T06:20:03.681Z,114.67
2019-02-15T06:22:36.583Z,116.93
2019-02-15T06:25:06.985Z,114.37
2019-02-15T06:27:37.209Z,117.23
2019-02-15T06:30:09.200Z,123.33
2019-02-15T06:32:39.398Z,113.93
2019-02-15T06:35:09.584Z,124.63
2019-02-15T06:37:39.622Z,117.07
2019-02-15T06:40:09.791Z,115.33
2019-02-15T06:42:39.823Z,111.50
2019-02-15T06:45:10.048Z,115.37
2019-02-15T06:47:40.221Z,119.43
2019-02-15T06:50:10.447Z,121.23
2019-02-15T06:52:40.573Z,115.80
2019-02-15T06:55:10.868Z,114.53
2019-02-15T06:57:40.884Z,112.23
2019-02-15T07:00:30.352Z,116.73
2019-02-15T07:03:04.677Z,115.87
2019-02-15T07:05:34.714Z,108.77
2019-02-15T07:08:04.784Z,112.93
2019-02-15T07:10:34.868Z,105.30
2019-02-15T07:13:05.063Z,106.10
2019-02-15T07:15:35.305Z,116.20
2019-02-15T07:18:05.486Z,117.43
2019-02-15T07:20:35.710Z,115.17
2019-02-15T07:23:06.029Z,107.83
2019-02-15T07:25:35.980Z,115.77
2019-02-15T07:28:06.061Z,110.23
2019-02-15T07:30:36.365Z,108.20
2019-02-15T07:33:06.569Z,104.67
2019-02-15T07:35:38.172Z,105.10
2019-02-15T07:38:08.171Z,107.93
2019-02-15T07:40:38.190Z,94.87
2019-02-15T07:43:08.313Z,97.43
2019-02-15T07:45:42.923Z,100.43
2019-02-15T07:48:10.145Z,97.57
2019-02-15T07:50:40.409Z,90.67
2019-02-15T07:53:10.712Z,78.87
2019-02-15T07:55:40.852Z,82.47
2019-02-15T07:58:11.067Z,80.57
2019-02-15T08:00:41.065Z,79.13
2019-02-15T08:03:11.196Z,83.10
2019-02-15T08:05:41.202Z,76.30
2019-02-15T08:08:11.285Z,83.57
2019-02-15T08:10:43.094Z,80.03
2019-02-15T08:13:14.972Z,77.47
2019-02-15T08:15:51.565Z,72.40
2019-02-15T08:18:17.000Z,76.17
2019-02-15T08:20:47.185Z,84.43
2019-02-15T08:23:18.803Z,93.90
2019-02-15T08:25:48.858Z,82.13
2019-02-15T08:28:19.122Z,82.63
2019-02-15T08:30:49.359Z,81.57
2019-02-15T08:33:19.414Z,83.27
2019-02-15T08:35:50.712Z,81.80
2019-02-15T08:38:20.959Z,77.77
2019-02-15T08:40:51.253Z,78.90
2019-02-15T08:43:21.557Z,70.17
2019-02-15T08:46:00.366Z,69.57
2019-02-15T08:48:23.368Z,67.80
2019-02-15T08:50:56.627Z,65.47
2019-02-15T08:53:26.415Z,69.40
2019-02-15T08:55:56.586Z,60.47
2019-02-15T08:58:26.144Z,65.67
2019-02-15T09:00:55.757Z,63.70
2019-02-15T09:03:25.689Z,67.57
2019-02-15T09:05:55.414Z,63.87
2019-02-15T09:08:25.375Z,64.67
2019-02-15T09:10:55.487Z,64.83
2019-02-15T09:13:25.590Z,61.17
2019-02-15T09:15:55.639Z,62.43
2019-02-15T09:18:25.884Z,59.97
2019-02-15T09:20:56.092Z,58.20
2019-02-15T09:23:26.332Z,56.20
2019-02-15T09:25:56.246Z,60.47
2019-02-15T09:28:30.439Z,59.50
2019-02-15T09:31:00.793Z,55.57
2019-02-15T09:33:30.926Z,63.10
2019-02-15T09:36:02.161Z,55.27
2019-02-15T09:38:32.367Z,51.87
2019-02-15T09:41:04.252Z,57.63
2019-02-15T09:43:34.649Z,57.23
2019-02-15T09:46:04.359Z,61.17
2019-02-15T09:48:34.575Z,65.97
2019-02-15T09:51:04.594Z,55.40
2019-02-15T09:53:35.280Z,58.03
2019-02-15T09:56:05.646Z,55.60
2019-02-15T09:58:35.762Z,61.87
2019-02-15T10:01:05.923Z,60.13
2019-02-15T10:03:35.923Z,56.67
2019-02-15T10:06:05.616Z,56.20
2019-02-15T10:08:35.216Z,58.47
2019-02-15T10:11:05.146Z,52.23
2019-02-15T10:13:36.204Z,55.63
2019-02-15T10:16:06.525Z,54.30
2019-02-15T10:18:36.199Z,51.23
2019-02-15T10:21:06.142Z,50.10
2019-02-15T10:23:36.247Z,55.93
2019-02-15T10:26:06.449Z,52.57
2019-02-15T10:28:36.443Z,56.20
2019-02-15T10:31:06.440Z,53.93
2019-02-15T10:33:36.598Z,57.33
2019-02-15T10:36:06.188Z,52.17
2019-02-15T10:38:36.058Z,55.17
2019-02-15T10:41:06.159Z,66.70
2019-02-15T10:43:36.160Z,63.10
2019-02-15T10:46:07.812Z,64.63
2019-02-15T10:48:38.539Z,68.40
2019-02-15T10:51:09.588Z,65.27
2019-02-15T10:53:39.696Z,69.93
2019-02-15T10:56:10.025Z,65.97
2019-02-15T10:58:41.378Z,76.83
2019-02-15T11:01:11.628Z,74.53
2019-02-15T11:03:42.408Z,74.80
2019-02-15T11:06:13.249Z,74.77
2019-02-15T11:08:43.207Z,76.17
2019-02-15T11:11:12.830Z,64.50
2019-02-15T11:13:42.762Z,71.67
2019-02-15T11:16:12.987Z,77.27
2019-02-15T11:18:43.185Z,87.57
2019-02-15T11:21:13.175Z,71.47
2019-02-15T11:23:43.165Z,71.07
2019-02-15T11:26:13.165Z,72.70
2019-02-15T11:28:43.506Z,73.33
2019-02-15T11:31:14.225Z,77.57
2019-02-15T11:33:44.655Z,73.33
2019-02-15T11:36:14.735Z,75.70
2019-02-15T11:38:44.892Z,78.57
2019-02-15T11:41:15.016Z,82.23
2019-02-15T11:43:46.266Z,75.77
2019-02-15T11:46:15.781Z,81.97
2019-02-15T11:48:45.576Z,80.77
2019-02-15T11:51:15.796Z,76.97
2019-02-15T11:53:45.536Z,80.27
2019-02-15T11:56:15.827Z,76.53
2019-02-15T11:58:45.947Z,64.90
2019-02-15T12:01:16.056Z,63.53
2019-02-15T12:03:46.078Z,74.93
2019-02-15T12:06:16.196Z,69.63
2019-02-15T12:08:46.672Z,63.27
2019-02-15T12:11:18.630Z,67.53
2019-02-15T12:13:49.110Z,68.90
2019-02-15T12:16:20.077Z,69.97
2019-02-15T12:18:51.510Z,67.80
2019-02-15T12:21:22.429Z,72.93
2019-02-15T12:23:52.756Z,66.73
2019-02-15T12:26:24.033Z,65.97
2019-02-15T12:28:54.372Z,78.10
2019-02-15T12:31:25.189Z,88.77
2019-02-15T12:33:55.549Z,102.90
2019-02-15T12:36:26.269Z,81.23
2019-02-15T12:38:56.792Z,79.40
2019-02-15T12:41:27.318Z,80.07
2019-02-15T12:43:58.030Z,75.73
2019-02-15T12:46:28.876Z,75.70
2019-02-15T12:48:59.551Z,78.70
2019-02-15T12:51:29.670Z,76.47
2019-02-15T12:54:00.798Z,75.13
2019-02-15T12:56:32.200Z,72.67
2019-02-15T12:59:03.910Z,79.33
2019-02-15T13:01:36.254Z,75.60
2019-02-15T13:04:06.268Z,70.97
2019-02-15T13:06:36.754Z,83.07
2019-02-15T13:09:08.950Z,103.53
2019-02-15T13:11:39.429Z,88.73
2019-02-15T13:14:10.614Z,84.10
2019-02-15T13:16:40.669Z,93.73
2019-02-15T13:19:11.441Z,83.80
2019-02-15T13:21:42.509Z,95.40
2019-02-15T13:24:18.870Z,91.23
2019-02-15T13:26:50.154Z,100.37
2019-02-15T13:29:20.654Z,100.03
2019-02-15T13:31:52.230Z,86.80
2019-02-15T13:34:22.647Z,95.70
2019-02-15T13:36:53.591Z,100.10
2019-02-15T13:39:23.951Z,97.13
2019-02-15T13:41:54.472Z,93.97
2019-02-15T13:44:24.910Z,100.53
2019-02-15T13:46:55.013Z,101.27
2019-02-15T13:49:25.184Z,105.40
2019-02-15T13:51:55.361Z,97.37
2019-02-15T13:54:25.614Z,97.90
2019-02-15T13:56:55.906Z,101.27
2019-02-15T13:59:25.924Z,101.17
2019-02-15T14:01:56.141Z,100.20
2019-02-15T14:04:28.094Z,100.33
2019-02-15T14:06:58.752Z,98.30
2019-02-15T14:09:28.394Z,99.40
2019-02-15T14:11:58.524Z,105.70
2019-02-15T14:14:28.776Z,104.77
2019-02-15T14:16:58.854Z,99.33
2019-02-15T14:19:28.544Z,107.07
2019-02-15T14:21:58.472Z,126.07
2019-02-15T14:24:29.737Z,131.50
2019-02-15T14:27:00.134Z,106.43
2019-02-15T14:29:30.497Z,106.20
2019-02-15T14:32:00.511Z,119.10
2019-02-15T14:34:30.601Z,105.57
2019-02-15T14:37:00.890Z,114.30
2019-02-15T14:39:31.395Z,107.60
2019-02-15T14:42:01.433Z,110.07
2019-02-15T14:44:31.485Z,109.63
2019-02-15T14:47:02.149Z,109.47
2019-02-15T14:49:32.623Z,104.93
2019-02-15T14:52:02.700Z,110.93
2019-02-15T14:54:32.857Z,104.83
2019-02-15T14:57:03.124Z,114.87
2019-02-15T14:59:33.192Z,113.67
2019-02-15T15:02:04.434Z,106.90
2019-02-15T15:04:34.786Z,110.60
2019-02-15T15:07:05.341Z,108.73
2019-02-15T15:09:35.678Z,118.40
2019-02-15T15:12:05.800Z,116.10
2019-02-15T15:14:36.001Z,114.87
2019-02-15T15:17:06.122Z,115.33
2019-02-15T15:19:36.281Z,112.53
2019-02-15T15:22:06.505Z,114.70
2019-02-15T15:24:36.726Z,110.90
2019-02-15T15:27:06.912Z,108.87
2019-02-15T15:29:37.652Z,110.23
2019-02-15T15:32:08.740Z,111.10
2019-02-15T15:34:39.026Z,114.13
2019-02-15T15:37:16.303Z,114.67
2019-02-15T15:39:40.933Z,113.70
2019-02-15T15:42:10.843Z,126.13
2019-02-15T15:44:41.481Z,125.70
2019-02-15T15:47:12.061Z,135.93
2019-02-15T15:49:43.670Z,130.93
2019-02-15T15:52:13.607Z,140.83
2019-02-15T15:54:44.195Z,133.87
2019-02-15T15:57:14.479Z,115.13
2019-02-15T15:59:45.025Z,131.90
2019-02-15T16:02:15.195Z,145.20
2019-02-15T16:04:45.335Z,131.23
2019-02-15T16:07:15.831Z,130.90
2019-02-15T16:09:46.055Z,133.70
2019-02-15T16:12:16.154Z,131.50
2019-02-15T16:14:46.694Z,134.40
2019-02-15T16:17:16.845Z,129.63
2019-02-15T16:19:49.246Z,128.67
2019-02-15T16:22:26.797Z,137.40
2019-02-15T16:25:06.448Z,143.27
2019-02-15T16:27:39.799Z,142.20
2019-02-15T16:30:16.023Z,114.53
2019-02-15T16:32:50.531Z,119.90
2019-02-15T16:35:21.251Z,116.43
2019-02-15T16:37:55.721Z,113.50
2019-02-15T16:40:25.579Z,115.03
2019-02-15T16:42:55.479Z,116.70
2019-02-15T16:45:25.870Z,110.93
2019-02-15T16:48:07.711Z,113.23
2019-02-15T16:50:41.781Z,132.90
2019-02-15T16:53:12.700Z,125.03
2019-02-15T16:55:45.139Z,120.90
2019-02-15T16:58:16.250Z,126.07
2019-02-15T17:00:47.837Z,123.67
2019-02-15T17:03:21.829Z,114.43
2019-02-15T17:05:56.029Z,115.47
2019-02-15T17:08:30.527Z,117.40
2019-02-15T17:11:05.108Z,105.47
2019-02-15T17:13:40.948Z,118.47
2019-02-15T17:16:12.807Z,127.33
2019-02-15T17:18:51.376Z,125.10
2019-02-15T17:21:17.270Z,128.87
2019-02-15T17:23:47.681Z,118.73
2019-02-15T17:26:24.211Z,151.17
2019-02-15T17:28:55.771Z,149.97
2019-02-15T17:31:25.919Z,133.67
2019-02-15T17:33:55.928Z,131.00
2019-02-15T17:36:26.183Z,137.00
2019-02-15T17:38:56.459Z,132.83
2019-02-15T17:41:27.783Z,131.87
2019-02-15T17:44:02.931Z,138.20
2019-02-15T17:46:39.761Z,119.13
2019-02-15T17:49:09.941Z,125.83
2019-02-15T17:51:40.243Z,128.90
2019-02-15T17:54:11.598Z,130.63
2019-02-15T17:56:41.743Z,127.80
2019-02-15T17:59:12.504Z,126.23
2019-02-15T18:01:43.804Z,123.87
2019-02-15T18:04:13.825Z,139.83
2019-02-15T18:06:45.346Z,129.70
2019-02-15T18:09:15.727Z,122.73
2019-02-15T18:11:46.070Z,137.97
2019-02-15T18:14:16.402Z,135.37
2019-02-15T18:16:46.922Z,124.57
2019-02-15T18:19:17.200Z,133.47
2019-02-15T18:21:47.526Z,131.60
2019-02-15T18:24:18.095Z,145.07
2019-02-15T18:26:48.119Z,146.87
2019-02-15T18:29:17.608Z,145.07
2019-02-15T18:31:49.911Z,141.20
2019-02-15T18:34:21.796Z,134.43
2019-02-15T18:36:54.184Z,139.03
2019-02-15T18:39:25.321Z,143.40
2019-02-15T18:41:57.148Z,143.23
2019-02-15T18:44:28.712Z,132.60
2019-02-15T18:46:59.921Z,151.27
2019-02-15T18:49:30.112Z,151.83
2019-02-15T18:52:06.211Z,141.87
2019-02-15T18:54:36.969Z,136.00
2019-02-15T18:57:08.520Z,141.23
2019-02-15T18:59:38.655Z,148.13
2019-02-15T19:02:08.705Z,155.60
2019-02-15T19:04:38.708Z,145.90
2019-02-15T19:07:08.850Z,147.73
2019-02-15T19:09:38.926Z,150.77
2019-02-15T19:12:10.697Z,137.27
2019-02-15T19:14:40.614Z,139.63
2019-02-15T19:17:10.839Z,145.20
2019-02-15T19:19:40.847Z,138.47
2019-02-15T19:22:11.258Z,142.40
2019-02-15T19:24:41.281Z,131.00
2019-02-15T19:27:11.361Z,142.70
2019-02-15T19:29:41.551Z,134.83
2019-02-15T19:32:11.848Z,145.20
2019-02-15T19:34:42.020Z,142.77
2019-02-15T19:37:12.293Z,148.63
2019-02-15T19:39:43.297Z,142.83
2019-02-15T19:42:13.443Z,148.53
2019-02-15T19:44:43.510Z,140.27
2019-02-15T19:47:13.654Z,145.70
2019-02-15T19:49:43.826Z,136.43
2019-02-15T19:52:14.200Z,141.47
2019-02-15T19:54:44.932Z,150.23
2019-02-15T19:57:15.149Z,141.77
2019-02-15T19:59:53.389Z,156.27
2019-02-15T20:02:17.130Z,189.53
2019-02-15T20:04:47.260Z,178.27
2019-02-15T20:07:17.571Z,159.03
2019-02-15T20:09:47.701Z,141.93
2019-02-15T20:12:18.009Z,151.00
2019-02-15T20:14:49.457Z,167.63
2019-02-15T20:17:19.849Z,182.30
2019-02-15T20:19:51.060Z,167.10
2019-02-15T20:22:21.697Z,182.67
2019-02-15T20:24:52.030Z,177.83
2019-02-15T20:27:22.451Z,177.10
2019-02-15T20:29:52.535Z,166.77
2019-02-15T20:32:22.768Z,161.60
2019-02-15T20:34:52.950Z,163.57
2019-02-15T20:37:24.173Z,158.80
2019-02-15T20:39:54.181Z,149.73
2019-02-15T20:42:24.354Z,196.10
2019-02-15T20:44:54.690Z,167.27
2019-02-15T20:47:24.859Z,147.47
2019-02-15T20:49:58.161Z,139.83
2019-02-15T20:52:26.557Z,143.00
2019-02-15T20:54:56.572Z,133.50
2019-02-15T20:57:26.787Z,136.73
2019-02-15T20:59:56.754Z,133.67
2019-02-15T21:02:27.150Z,130.80
2019-02-15T21:04:57.235Z,130.83
2019-02-15T21:07:27.192Z,137.37
2019-02-15T21:09:57.188Z,125.50
2019-02-15T21:12:27.649Z,112.63
2019-02-15T21:14:57.721Z,120.30
2019-02-15T21:17:28.040Z,124.43
2019-02-15T21:20:07.032Z,144.00
2019-02-15T21:22:29.960Z,146.87
2019-02-15T21:25:00.380Z,146.03
2019-02-15T21:27:30.850Z,120.03
2019-02-15T21:30:01.121Z,113.73
2019-02-15T21:32:31.440Z,120.40
2019-02-15T21:35:01.721Z,126.43
2019-02-15T21:37:33.295Z,117.70
2019-02-15T21:40:03.635Z,130.20
2019-02-15T21:42:34.119Z,115.23
2019-02-15T21:45:04.519Z,105.30
2019-02-15T21:47:35.540Z,104.70
2019-02-15T21:50:16.776Z,120.80
2019-02-15T21:52:44.083Z,129.27
2019-02-15T21:55:14.801Z,123.20
2019-02-15T21:57:45.920Z,125.03
2019-02-15T22:00:21.761Z,131.20
2019-02-15T22:02:52.181Z,132.97
2019-02-15T22:05:23.355Z,118.70
2019-02-15T22:07:53.480Z,133.17
2019-02-15T22:10:23.859Z,126.37
2019-02-15T22:12:54.100Z,129.13
2019-02-15T22:15:24.320Z,130.13
2019-02-15T22:17:54.539Z,112.27
2019-02-15T22:20:26.991Z,125.07
2019-02-15T22:22:57.162Z,115.67
2019-02-15T22:25:27.400Z,169.63
2019-02-15T22:27:57.580Z,154.23
2019-02-15T22:30:27.779Z,156.27
2019-02-15T22:32:57.941Z,169.40
2019-02-15T22:35:28.168Z,125.93
2019-02-15T22:37:58.121Z,146.33
2019-02-15T22:40:29.600Z,139.33
2019-02-15T22:43:02.888Z,128.40
2019-02-15T22:45:33.062Z,125.60
2019-02-15T22:48:04.559Z,129.83
2019-02-15T22:50:36.298Z,153.10
2019-02-15T22:53:06.840Z,147.87
2019-02-15T22:55:36.979Z,137.40
2019-02-15T22:58:07.140Z,123.37
2019-02-15T23:00:53.980Z,134.83
2019-02-15T23:03:26.627Z,130.47
2019-02-15T23:05:56.821Z,137.93
2019-02-15T23:08:26.879Z,151.03
2019-02-15T23:10:56.967Z,150.77
2019-02-15T23:13:27.439Z,142.03
2019-02-15T23:15:57.600Z,133.00
2019-02-15T23:18:27.951Z,127.60
2019-02-15T23:20:58.040Z,142.73
2019-02-15T23:23:30.001Z,136.90
2019-02-15T23:26:00.100Z,141.07
2019-02-15T23:28:30.329Z,154.93
2019-02-15T23:31:00.682Z,142.90
2019-02-15T23:33:30.976Z,152.47
2019-02-15T23:36:00.988Z,143.23
2019-02-15T23:38:31.142Z,134.13
2019-02-15T23:41:01.081Z,163.80
2019-02-15T23:43:31.439Z,148.07
2019-02-15T23:46:01.440Z,147.30
2019-02-15T23:48:31.660Z,148.80
2019-02-15T23:51:02.079Z,150.37
2019-02-15T23:53:32.380Z,132.03
2019-02-15T23:56:02.764Z,138.43
2019-02-15T23:58:32.781Z,141.83
